sensor_id;sensor_type;location;lat;lon;timestamp;P1;durP1;ratioP1;P2;durP2;ratioP2
6479;SDS011;71753;48.772;9.148;2023-12-28T00:00:03;2.93;;;1.73;;
6479;SDS011;71753;48.772;9.148;2023-12-28T00:02:32;1.87;;;1.50;;
6479;SDS011;71753;48.772;9.148;2023-12-28T00:04:58;2.30;;;1.73;;
6479;SDS011;71753;48.772;9.148;2023-12-28T00:07:25;2.17;;;1.60;;
6479;SDS011;71753;48.772;9.148;2023-12-28T00:09:53;2.20;;;1.70;;
6479;SDS011;71753;48.772;9.148;2023-12-28T00:12:19;1.60;;;1.40;;
6479;SDS011;71753;48.772;9.148;2023-12-28T00:14:47;1.70;;;1.50;;
6479;SDS011;71753;48.772;9.148;2023-12-28T00:17:14;2.43;;;1.60;;
6479;SDS011;71753;48.772;9.148;2023-12-28T00:19:41;1.77;;;1.53;;
6479;SDS011;71753;48.772;9.148;2023-12-28T00:22:07;1.50;;;1.40;;
6479;SDS011;71753;48.772;9.148;2023-12-28T00:24:34;1.67;;;1.43;;
6479;SDS011;71753;48.772;9.148;2023-12-28T00:27:02;1.57;;;1.33;;
6479;SDS011;71753;48.772;9.148;2023-12-28T00:29:29;1.90;;;1.40;;
6479;SDS011;71753;48.772;9.148;2023-12-28T00:31:55;1.83;;;1.63;;
6479;SDS011;71753;48.772;9.148;2023-12-28T00:34:22;1.80;;;1.60;;
6479;SDS011;71753;48.772;9.148;2023-12-28T00:36:49;2.30;;;1.80;;
6479;SDS011;71753;48.772;9.148;2023-12-28T00:39:15;3.13;;;1.70;;
6479;SDS011;71753;48.772;9.148;2023-12-28T00:41:42;2.13;;;1.60;;
6479;SDS011;71753;48.772;9.148;2023-12-28T00:44:10;1.97;;;1.60;;
6479;SDS011;71753;48.772;9.148;2023-12-28T00:46:36;2.13;;;1.63;;
6479;SDS011;71753;48.772;9.148;2023-12-28T00:49:03;2.00;;;1.60;;
6479;SDS011;71753;48.772;9.148;2023-12-28T00:51:30;2.67;;;1.63;;
6479;SDS011;71753;48.772;9.148;2023-12-28T00:53:56;1.80;;;1.60;;
6479;SDS011;71753;48.772;9.148;2023-12-28T00:56:23;1.80;;;1.60;;
6479;SDS011;71753;48.772;9.148;2023-12-28T00:58:50;2.30;;;1.80;;
6479;SDS011;71753;48.772;9.148;2023-12-28T01:01:18;1.67;;;1.57;;
6479;SDS011;71753;48.772;9.148;2023-12-28T01:03:44;1.80;;;1.40;;
6479;SDS011;71753;48.772;9.148;2023-12-28T01:06:11;2.77;;;1.70;;
6479;SDS011;71753;48.772;9.148;2023-12-28T01:08:37;2.23;;;1.70;;
6479;SDS011;71753;48.772;9.148;2023-12-28T01:11:05;2.40;;;1.60;;
6479;SDS011;71753;48.772;9.148;2023-12-28T01:13:31;2.30;;;1.60;;
6479;SDS011;71753;48.772;9.148;2023-12-28T01:15:58;1.80;;;1.60;;
6479;SDS011;71753;48.772;9.148;2023-12-28T01:18:26;2.87;;;1.70;;
6479;SDS011;71753;48.772;9.148;2023-12-28T01:20:53;1.90;;;1.67;;
6479;SDS011;71753;48.772;9.148;2023-12-28T01:23:19;1.80;;;1.60;;
6479;SDS011;71753;48.772;9.148;2023-12-28T01:25:46;1.93;;;1.67;;
6479;SDS011;71753;48.772;9.148;2023-12-28T01:28:12;1.53;;;1.43;;
6479;SDS011;71753;48.772;9.148;2023-12-28T01:30:39;3.43;;;1.67;;
6479;SDS011;71753;48.772;9.148;2023-12-28T01:33:06;2.87;;;1.80;;
6479;SDS011;71753;48.772;9.148;2023-12-28T01:35:34;3.60;;;1.73;;
6479;SDS011;71753;48.772;9.148;2023-12-28T01:38:00;2.03;;;1.63;;
6479;SDS011;71753;48.772;9.148;2023-12-28T01:40:27;1.77;;;1.60;;
6479;SDS011;71753;48.772;9.148;2023-12-28T01:42:52;2.57;;;1.60;;
6479;SDS011;71753;48.772;9.148;2023-12-28T01:45:19;2.03;;;1.60;;
6479;SDS011;71753;48.772;9.148;2023-12-28T01:47:46;2.10;;;1.70;;
6479;SDS011;71753;48.772;9.148;2023-12-28T01:50:14;1.67;;;1.50;;
6479;SDS011;71753;48.772;9.148;2023-12-28T01:52:43;2.50;;;1.70;;
6479;SDS011;71753;48.772;9.148;2023-12-28T01:55:10;2.20;;;1.60;;
6479;SDS011;71753;48.772;9.148;2023-12-28T01:57:38;1.73;;;1.60;;
6479;SDS011;71753;48.772;9.148;2023-12-28T02:00:05;2.20;;;1.77;;
6479;SDS011;71753;48.772;9.148;2023-12-28T02:02:33;2.10;;;1.57;;
6479;SDS011;71753;48.772;9.148;2023-12-28T02:05:01;2.30;;;1.60;;
6479;SDS011;71753;48.772;9.148;2023-12-28T02:07:28;2.30;;;1.60;;
6479;SDS011;71753;48.772;9.148;2023-12-28T02:09:57;1.93;;;1.70;;
6479;SDS011;71753;48.772;9.148;2023-12-28T02:12:23;2.47;;;1.73;;
6479;SDS011;71753;48.772;9.148;2023-12-28T02:14:50;2.13;;;1.60;;
6479;SDS011;71753;48.772;9.148;2023-12-28T02:17:19;4.03;;;1.60;;
6479;SDS011;71753;48.772;9.148;2023-12-28T02:19:50;2.20;;;1.80;;
6479;SDS011;71753;48.772;9.148;2023-12-28T02:22:18;1.73;;;1.53;;
6479;SDS011;71753;48.772;9.148;2023-12-28T02:24:57;2.93;;;1.83;;
6479;SDS011;71753;48.772;9.148;2023-12-28T02:27:28;2.23;;;1.87;;
6479;SDS011;71753;48.772;9.148;2023-12-28T02:29:54;2.33;;;1.60;;
6479;SDS011;71753;48.772;9.148;2023-12-28T02:32:22;1.97;;;1.60;;
6479;SDS011;71753;48.772;9.148;2023-12-28T02:34:55;2.37;;;1.83;;
6479;SDS011;71753;48.772;9.148;2023-12-28T02:37:27;1.97;;;1.57;;
6479;SDS011;71753;48.772;9.148;2023-12-28T02:39:58;2.13;;;1.70;;
6479;SDS011;71753;48.772;9.148;2023-12-28T02:42:25;2.30;;;1.70;;
6479;SDS011;71753;48.772;9.148;2023-12-28T02:44:51;2.63;;;1.60;;
6479;SDS011;71753;48.772;9.148;2023-12-28T02:47:18;1.87;;;1.60;;
6479;SDS011;71753;48.772;9.148;2023-12-28T02:49:44;2.53;;;1.60;;
6479;SDS011;71753;48.772;9.148;2023-12-28T02:52:11;2.43;;;1.60;;
6479;SDS011;71753;48.772;9.148;2023-12-28T02:54:38;3.40;;;1.80;;
6479;SDS011;71753;48.772;9.148;2023-12-28T02:57:06;2.23;;;1.50;;
6479;SDS011;71753;48.772;9.148;2023-12-28T02:59:32;1.93;;;1.63;;
6479;SDS011;71753;48.772;9.148;2023-12-28T03:01:59;2.33;;;1.80;;
6479;SDS011;71753;48.772;9.148;2023-12-28T03:04:25;2.40;;;1.80;;
6479;SDS011;71753;48.772;9.148;2023-12-28T03:06:52;2.03;;;1.63;;
6479;SDS011;71753;48.772;9.148;2023-12-28T03:09:18;2.57;;;1.50;;
6479;SDS011;71753;48.772;9.148;2023-12-28T03:11:45;1.97;;;1.60;;
6479;SDS011;71753;48.772;9.148;2023-12-28T03:14:13;3.00;;;1.70;;
6479;SDS011;71753;48.772;9.148;2023-12-28T03:16:40;2.23;;;1.57;;
6479;SDS011;71753;48.772;9.148;2023-12-28T03:19:06;1.87;;;1.40;;
6479;SDS011;71753;48.772;9.148;2023-12-28T03:21:32;2.43;;;1.60;;
6479;SDS011;71753;48.772;9.148;2023-12-28T03:23:58;2.13;;;1.60;;
6479;SDS011;71753;48.772;9.148;2023-12-28T03:26:25;2.43;;;1.80;;
6479;SDS011;71753;48.772;9.148;2023-12-28T03:28:51;1.80;;;1.57;;
6479;SDS011;71753;48.772;9.148;2023-12-28T03:31:19;1.87;;;1.50;;
6479;SDS011;71753;48.772;9.148;2023-12-28T03:33:45;1.83;;;1.70;;
6479;SDS011;71753;48.772;9.148;2023-12-28T03:36:17;2.10;;;1.70;;
6479;SDS011;71753;48.772;9.148;2023-12-28T03:38:44;2.40;;;1.47;;
6479;SDS011;71753;48.772;9.148;2023-12-28T03:41:15;2.40;;;1.80;;
6479;SDS011;71753;48.772;9.148;2023-12-28T03:43:42;1.60;;;1.50;;
6479;SDS011;71753;48.772;9.148;2023-12-28T03:46:09;2.23;;;1.73;;
6479;SDS011;71753;48.772;9.148;2023-12-28T03:48:37;2.47;;;1.70;;
6479;SDS011;71753;48.772;9.148;2023-12-28T03:51:04;2.80;;;1.63;;
6479;SDS011;71753;48.772;9.148;2023-12-28T03:53:31;2.13;;;1.60;;
6479;SDS011;71753;48.772;9.148;2023-12-28T03:55:58;2.37;;;1.83;;
6479;SDS011;71753;48.772;9.148;2023-12-28T03:58:25;1.50;;;1.40;;
6479;SDS011;71753;48.772;9.148;2023-12-28T04:00:52;2.60;;;1.50;;
6479;SDS011;71753;48.772;9.148;2023-12-28T04:03:18;2.07;;;1.40;;
6479;SDS011;71753;48.772;9.148;2023-12-28T04:05:46;1.80;;;1.50;;
6479;SDS011;71753;48.772;9.148;2023-12-28T04:08:13;2.70;;;1.60;;
6479;SDS011;71753;48.772;9.148;2023-12-28T04:10:39;1.43;;;1.23;;
6479;SDS011;71753;48.772;9.148;2023-12-28T04:13:06;2.00;;;1.50;;
6479;SDS011;71753;48.772;9.148;2023-12-28T04:15:33;1.93;;;1.43;;
6479;SDS011;71753;48.772;9.148;2023-12-28T04:17:59;1.80;;;1.50;;
6479;SDS011;71753;48.772;9.148;2023-12-28T04:20:26;2.97;;;1.47;;
6479;SDS011;71753;48.772;9.148;2023-12-28T04:22:54;2.17;;;1.47;;
6479;SDS011;71753;48.772;9.148;2023-12-28T04:25:20;1.30;;;1.20;;
6479;SDS011;71753;48.772;9.148;2023-12-28T04:27:47;1.67;;;1.40;;
6479;SDS011;71753;48.772;9.148;2023-12-28T04:30:14;2.17;;;1.60;;
6479;SDS011;71753;48.772;9.148;2023-12-28T04:32:41;2.17;;;1.50;;
6479;SDS011;71753;48.772;9.148;2023-12-28T04:35:08;1.93;;;1.30;;
6479;SDS011;71753;48.772;9.148;2023-12-28T04:37:34;1.40;;;1.23;;
6479;SDS011;71753;48.772;9.148;2023-12-28T04:40:03;2.27;;;1.50;;
6479;SDS011;71753;48.772;9.148;2023-12-28T04:42:30;1.63;;;1.30;;
6479;SDS011;71753;48.772;9.148;2023-12-28T04:44:57;2.00;;;1.50;;
6479;SDS011;71753;48.772;9.148;2023-12-28T04:47:23;2.00;;;1.60;;
6479;SDS011;71753;48.772;9.148;2023-12-28T04:49:50;1.90;;;1.50;;
6479;SDS011;71753;48.772;9.148;2023-12-28T04:52:16;1.73;;;1.50;;
6479;SDS011;71753;48.772;9.148;2023-12-28T04:54:43;1.77;;;1.40;;
6479;SDS011;71753;48.772;9.148;2023-12-28T04:57:11;1.70;;;1.47;;
6479;SDS011;71753;48.772;9.148;2023-12-28T04:59:38;1.63;;;1.40;;
6479;SDS011;71753;48.772;9.148;2023-12-28T05:02:05;1.53;;;1.40;;
6479;SDS011;71753;48.772;9.148;2023-12-28T05:04:31;1.40;;;1.30;;
6479;SDS011;71753;48.772;9.148;2023-12-28T05:06:58;1.97;;;1.20;;
6479;SDS011;71753;48.772;9.148;2023-12-28T05:09:24;2.03;;;1.40;;
6479;SDS011;71753;48.772;9.148;2023-12-28T05:11:51;1.77;;;1.33;;
6479;SDS011;71753;48.772;9.148;2023-12-28T05:14:19;1.80;;;1.40;;
6479;SDS011;71753;48.772;9.148;2023-12-28T05:16:46;2.63;;;1.60;;
6479;SDS011;71753;48.772;9.148;2023-12-28T05:19:12;1.93;;;1.50;;
6479;SDS011;71753;48.772;9.148;2023-12-28T05:21:39;1.83;;;1.60;;
6479;SDS011;71753;48.772;9.148;2023-12-28T05:24:06;1.40;;;1.30;;
6479;SDS011;71753;48.772;9.148;2023-12-28T05:26:33;2.53;;;1.40;;
6479;SDS011;71753;48.772;9.148;2023-12-28T05:28:59;2.30;;;1.50;;
6479;SDS011;71753;48.772;9.148;2023-12-28T05:31:27;3.60;;;1.57;;
6479;SDS011;71753;48.772;9.148;2023-12-28T05:33:54;1.80;;;1.43;;
6479;SDS011;71753;48.772;9.148;2023-12-28T05:36:22;2.43;;;1.50;;
6479;SDS011;71753;48.772;9.148;2023-12-28T05:38:48;1.67;;;1.57;;
6479;SDS011;71753;48.772;9.148;2023-12-28T05:41:15;2.97;;;1.50;;
6479;SDS011;71753;48.772;9.148;2023-12-28T05:43:41;2.10;;;1.60;;
6479;SDS011;71753;48.772;9.148;2023-12-28T05:46:08;3.70;;;1.60;;
6479;SDS011;71753;48.772;9.148;2023-12-28T05:48:36;1.90;;;1.40;;
6479;SDS011;71753;48.772;9.148;2023-12-28T05:51:03;3.00;;;1.60;;
6479;SDS011;71753;48.772;9.148;2023-12-28T05:53:30;2.00;;;1.50;;
6479;SDS011;71753;48.772;9.148;2023-12-28T05:55:57;3.47;;;1.40;;
6479;SDS011;71753;48.772;9.148;2023-12-28T05:58:28;2.03;;;1.40;;
6479;SDS011;71753;48.772;9.148;2023-12-28T06:00:54;2.47;;;1.60;;
6479;SDS011;71753;48.772;9.148;2023-12-28T06:03:21;1.67;;;1.57;;
6479;SDS011;71753;48.772;9.148;2023-12-28T06:05:54;1.63;;;1.43;;
6479;SDS011;71753;48.772;9.148;2023-12-28T06:08:21;2.50;;;1.30;;
6479;SDS011;71753;48.772;9.148;2023-12-28T06:10:47;2.00;;;1.40;;
6479;SDS011;71753;48.772;9.148;2023-12-28T06:13:14;1.87;;;1.40;;
6479;SDS011;71753;48.772;9.148;2023-12-28T06:15:41;1.57;;;1.40;;
6479;SDS011;71753;48.772;9.148;2023-12-28T06:18:08;1.83;;;1.23;;
6479;SDS011;71753;48.772;9.148;2023-12-28T06:20:35;1.90;;;1.30;;
6479;SDS011;71753;48.772;9.148;2023-12-28T06:23:03;2.93;;;1.50;;
6479;SDS011;71753;48.772;9.148;2023-12-28T06:25:30;1.90;;;1.50;;
6479;SDS011;71753;48.772;9.148;2023-12-28T06:27:56;2.70;;;1.60;;
6479;SDS011;71753;48.772;9.148;2023-12-28T06:30:23;2.10;;;1.30;;
6479;SDS011;71753;48.772;9.148;2023-12-28T06:32:50;2.10;;;1.40;;
6479;SDS011;71753;48.772;9.148;2023-12-28T06:35:16;1.67;;;1.37;;
6479;SDS011;71753;48.772;9.148;2023-12-28T06:37:43;1.97;;;1.57;;
6479;SDS011;71753;48.772;9.148;2023-12-28T06:40:12;3.17;;;1.53;;
6479;SDS011;71753;48.772;9.148;2023-12-28T06:42:38;2.63;;;1.50;;
6479;SDS011;71753;48.772;9.148;2023-12-28T06:45:08;2.77;;;1.90;;
6479;SDS011;71753;48.772;9.148;2023-12-28T06:47:35;1.63;;;1.53;;
6479;SDS011;71753;48.772;9.148;2023-12-28T06:50:02;2.93;;;2.00;;
6479;SDS011;71753;48.772;9.148;2023-12-28T06:52:30;3.40;;;1.90;;
6479;SDS011;71753;48.772;9.148;2023-12-28T06:54:56;3.30;;;2.20;;
6479;SDS011;71753;48.772;9.148;2023-12-28T06:57:25;5.07;;;2.90;;
6479;SDS011;71753;48.772;9.148;2023-12-28T06:59:51;2.50;;;1.97;;
6479;SDS011;71753;48.772;9.148;2023-12-28T07:02:19;3.50;;;2.33;;
6479;SDS011;71753;48.772;9.148;2023-12-28T07:04:45;4.77;;;3.23;;
6479;SDS011;71753;48.772;9.148;2023-12-28T07:07:12;2.50;;;1.90;;
6479;SDS011;71753;48.772;9.148;2023-12-28T07:09:39;3.20;;;2.10;;
6479;SDS011;71753;48.772;9.148;2023-12-28T07:12:06;2.47;;;1.70;;
6479;SDS011;71753;48.772;9.148;2023-12-28T07:14:34;3.67;;;1.70;;
6479;SDS011;71753;48.772;9.148;2023-12-28T07:17:01;3.90;;;1.67;;
6479;SDS011;71753;48.772;9.148;2023-12-28T07:19:27;1.80;;;1.60;;
6479;SDS011;71753;48.772;9.148;2023-12-28T07:21:54;2.70;;;1.50;;
6479;SDS011;71753;48.772;9.148;2023-12-28T07:24:21;2.23;;;1.63;;
6479;SDS011;71753;48.772;9.148;2023-12-28T07:26:47;4.10;;;2.40;;
6479;SDS011;71753;48.772;9.148;2023-12-28T07:29:14;4.50;;;2.30;;
6479;SDS011;71753;48.772;9.148;2023-12-28T07:31:42;5.47;;;3.43;;
6479;SDS011;71753;48.772;9.148;2023-12-28T07:34:08;6.93;;;2.70;;
6479;SDS011;71753;48.772;9.148;2023-12-28T07:36:35;6.53;;;2.97;;
6479;SDS011;71753;48.772;9.148;2023-12-28T07:39:02;10.03;;;4.07;;
6479;SDS011;71753;48.772;9.148;2023-12-28T07:41:29;9.73;;;3.70;;
6479;SDS011;71753;48.772;9.148;2023-12-28T07:43:55;6.27;;;2.90;;
6479;SDS011;71753;48.772;9.148;2023-12-28T07:46:22;5.80;;;2.73;;
6479;SDS011;71753;48.772;9.148;2023-12-28T07:48:50;5.63;;;2.70;;
6479;SDS011;71753;48.772;9.148;2023-12-28T07:51:16;3.93;;;2.23;;
6479;SDS011;71753;48.772;9.148;2023-12-28T07:53:43;4.53;;;2.60;;
6479;SDS011;71753;48.772;9.148;2023-12-28T07:56:10;2.97;;;1.90;;
6479;SDS011;71753;48.772;9.148;2023-12-28T07:58:36;3.30;;;1.90;;
6479;SDS011;71753;48.772;9.148;2023-12-28T08:01:08;1.83;;;1.50;;
6479;SDS011;71753;48.772;9.148;2023-12-28T08:03:35;2.80;;;1.60;;
6479;SDS011;71753;48.772;9.148;2023-12-28T08:06:04;2.63;;;1.70;;
6479;SDS011;71753;48.772;9.148;2023-12-28T08:08:31;1.80;;;1.50;;
6479;SDS011;71753;48.772;9.148;2023-12-28T08:10:58;1.83;;;1.40;;
6479;SDS011;71753;48.772;9.148;2023-12-28T08:13:24;1.40;;;1.30;;
6479;SDS011;71753;48.772;9.148;2023-12-28T08:15:51;2.10;;;1.67;;
6479;SDS011;71753;48.772;9.148;2023-12-28T08:18:18;2.30;;;1.70;;
6479;SDS011;71753;48.772;9.148;2023-12-28T08:20:44;3.80;;;1.70;;
6479;SDS011;71753;48.772;9.148;2023-12-28T08:23:12;3.03;;;1.70;;
6479;SDS011;71753;48.772;9.148;2023-12-28T08:25:39;2.07;;;1.53;;
6479;SDS011;71753;48.772;9.148;2023-12-28T08:28:05;1.83;;;1.63;;
6479;SDS011;71753;48.772;9.148;2023-12-28T08:30:32;2.73;;;1.70;;
6479;SDS011;71753;48.772;9.148;2023-12-28T08:32:59;5.13;;;1.90;;
6479;SDS011;71753;48.772;9.148;2023-12-28T08:35:25;1.83;;;1.40;;
6479;SDS011;71753;48.772;9.148;2023-12-28T08:37:52;2.30;;;1.60;;
6479;SDS011;71753;48.772;9.148;2023-12-28T08:40:20;1.97;;;1.60;;
6479;SDS011;71753;48.772;9.148;2023-12-28T08:42:46;3.07;;;1.90;;
6479;SDS011;71753;48.772;9.148;2023-12-28T08:45:13;2.40;;;1.60;;
6479;SDS011;71753;48.772;9.148;2023-12-28T08:47:40;3.47;;;1.60;;
6479;SDS011;71753;48.772;9.148;2023-12-28T08:50:06;2.23;;;1.47;;
6479;SDS011;71753;48.772;9.148;2023-12-28T08:52:34;2.00;;;1.60;;
6479;SDS011;71753;48.772;9.148;2023-12-28T08:55:01;2.03;;;1.57;;
6479;SDS011;71753;48.772;9.148;2023-12-28T08:57:29;2.37;;;1.60;;
6479;SDS011;71753;48.772;9.148;2023-12-28T08:59:56;1.77;;;1.33;;
6479;SDS011;71753;48.772;9.148;2023-12-28T09:02:27;2.23;;;1.50;;
6479;SDS011;71753;48.772;9.148;2023-12-28T09:04:53;2.03;;;1.50;;
6479;SDS011;71753;48.772;9.148;2023-12-28T09:07:20;2.00;;;1.50;;
6479;SDS011;71753;48.772;9.148;2023-12-28T09:09:46;1.73;;;1.47;;
6479;SDS011;71753;48.772;9.148;2023-12-28T09:12:13;2.40;;;1.70;;
6479;SDS011;71753;48.772;9.148;2023-12-28T09:14:41;2.50;;;1.50;;
6479;SDS011;71753;48.772;9.148;2023-12-28T09:17:08;3.20;;;1.40;;
6479;SDS011;71753;48.772;9.148;2023-12-28T09:19:34;4.57;;;1.63;;
6479;SDS011;71753;48.772;9.148;2023-12-28T09:22:01;2.23;;;1.50;;
6479;SDS011;71753;48.772;9.148;2023-12-28T09:24:28;2.20;;;1.53;;
6479;SDS011;71753;48.772;9.148;2023-12-28T09:26:55;1.90;;;1.20;;
6479;SDS011;71753;48.772;9.148;2023-12-28T09:29:22;1.87;;;1.50;;
6479;SDS011;71753;48.772;9.148;2023-12-28T09:31:50;2.00;;;1.60;;
6479;SDS011;71753;48.772;9.148;2023-12-28T09:34:16;2.17;;;1.57;;
6479;SDS011;71753;48.772;9.148;2023-12-28T09:36:43;1.53;;;1.33;;
6479;SDS011;71753;48.772;9.148;2023-12-28T09:39:10;3.23;;;1.57;;
6479;SDS011;71753;48.772;9.148;2023-12-28T09:41:37;1.80;;;1.53;;
6479;SDS011;71753;48.772;9.148;2023-12-28T09:44:07;2.67;;;1.63;;
6479;SDS011;71753;48.772;9.148;2023-12-28T09:46:37;1.70;;;1.50;;
6479;SDS011;71753;48.772;9.148;2023-12-28T09:49:08;2.10;;;1.47;;
6479;SDS011;71753;48.772;9.148;2023-12-28T09:51:35;2.70;;;1.77;;
6479;SDS011;71753;48.772;9.148;2023-12-28T09:54:02;2.23;;;1.70;;
6479;SDS011;71753;48.772;9.148;2023-12-28T09:56:30;1.70;;;1.30;;
6479;SDS011;71753;48.772;9.148;2023-12-28T09:58:58;2.13;;;1.60;;
6479;SDS011;71753;48.772;9.148;2023-12-28T10:01:25;2.30;;;1.50;;
6479;SDS011;71753;48.772;9.148;2023-12-28T10:03:52;3.50;;;1.50;;
6479;SDS011;71753;48.772;9.148;2023-12-28T10:06:20;1.93;;;1.67;;
6479;SDS011;71753;48.772;9.148;2023-12-28T10:08:47;2.90;;;1.80;;
6479;SDS011;71753;48.772;9.148;2023-12-28T10:11:14;2.13;;;1.50;;
6479;SDS011;71753;48.772;9.148;2023-12-28T10:13:41;2.13;;;1.47;;
6479;SDS011;71753;48.772;9.148;2023-12-28T10:16:09;2.00;;;1.80;;
6479;SDS011;71753;48.772;9.148;2023-12-28T10:18:35;2.37;;;1.70;;
6479;SDS011;71753;48.772;9.148;2023-12-28T10:21:02;2.40;;;1.70;;
6479;SDS011;71753;48.772;9.148;2023-12-28T10:23:30;2.30;;;1.40;;
6479;SDS011;71753;48.772;9.148;2023-12-28T10:25:57;2.30;;;1.60;;
6479;SDS011;71753;48.772;9.148;2023-12-28T10:28:25;1.63;;;1.30;;
6479;SDS011;71753;48.772;9.148;2023-12-28T10:30:54;2.23;;;1.20;;
6479;SDS011;71753;48.772;9.148;2023-12-28T10:33:21;2.87;;;1.63;;
6479;SDS011;71753;48.772;9.148;2023-12-28T10:35:48;2.00;;;1.50;;
6479;SDS011;71753;48.772;9.148;2023-12-28T10:38:16;1.67;;;1.40;;
6479;SDS011;71753;48.772;9.148;2023-12-28T10:40:45;1.77;;;1.47;;
6479;SDS011;71753;48.772;9.148;2023-12-28T10:43:14;1.40;;;1.30;;
6479;SDS011;71753;48.772;9.148;2023-12-28T10:45:42;2.50;;;1.50;;
6479;SDS011;71753;48.772;9.148;2023-12-28T10:48:13;2.00;;;1.50;;
6479;SDS011;71753;48.772;9.148;2023-12-28T10:50:40;1.57;;;1.27;;
6479;SDS011;71753;48.772;9.148;2023-12-28T10:53:22;1.40;;;1.23;;
6479;SDS011;71753;48.772;9.148;2023-12-28T10:56:03;1.33;;;1.20;;
6479;SDS011;71753;48.772;9.148;2023-12-28T10:58:40;2.07;;;1.40;;
6479;SDS011;71753;48.772;9.148;2023-12-28T11:01:14;1.97;;;1.40;;
6479;SDS011;71753;48.772;9.148;2023-12-28T11:03:44;1.40;;;1.20;;
6479;SDS011;71753;48.772;9.148;2023-12-28T11:06:16;2.40;;;1.40;;
6479;SDS011;71753;48.772;9.148;2023-12-28T11:08:44;1.53;;;1.40;;
6479;SDS011;71753;48.772;9.148;2023-12-28T11:11:17;1.50;;;1.30;;
6479;SDS011;71753;48.772;9.148;2023-12-28T11:13:46;1.50;;;1.10;;
6479;SDS011;71753;48.772;9.148;2023-12-28T11:16:13;1.60;;;1.30;;
6479;SDS011;71753;48.772;9.148;2023-12-28T11:18:40;1.17;;;1.07;;
6479;SDS011;71753;48.772;9.148;2023-12-28T11:21:07;2.50;;;1.47;;
6479;SDS011;71753;48.772;9.148;2023-12-28T11:23:34;2.63;;;1.40;;
6479;SDS011;71753;48.772;9.148;2023-12-28T11:26:01;1.13;;;1.03;;
6479;SDS011;71753;48.772;9.148;2023-12-28T11:28:29;2.00;;;1.20;;
6479;SDS011;71753;48.772;9.148;2023-12-28T11:30:56;1.20;;;1.10;;
6479;SDS011;71753;48.772;9.148;2023-12-28T11:33:23;2.70;;;1.13;;
6479;SDS011;71753;48.772;9.148;2023-12-28T11:35:56;2.63;;;1.20;;
6479;SDS011;71753;48.772;9.148;2023-12-28T11:38:24;1.50;;;1.37;;
6479;SDS011;71753;48.772;9.148;2023-12-28T11:40:51;1.77;;;1.17;;
6479;SDS011;71753;48.772;9.148;2023-12-28T11:43:21;1.53;;;1.30;;
6479;SDS011;71753;48.772;9.148;2023-12-28T11:45:51;3.30;;;1.30;;
6479;SDS011;71753;48.772;9.148;2023-12-28T11:48:23;1.60;;;1.33;;
6479;SDS011;71753;48.772;9.148;2023-12-28T11:50:53;4.73;;;2.40;;
6479;SDS011;71753;48.772;9.148;2023-12-28T11:53:21;1.80;;;1.40;;
6479;SDS011;71753;48.772;9.148;2023-12-28T11:55:48;1.57;;;1.27;;
6479;SDS011;71753;48.772;9.148;2023-12-28T11:58:15;1.40;;;1.30;;
6479;SDS011;71753;48.772;9.148;2023-12-28T12:00:42;1.73;;;1.40;;
6479;SDS011;71753;48.772;9.148;2023-12-28T12:03:11;2.00;;;1.50;;
6479;SDS011;71753;48.772;9.148;2023-12-28T12:05:38;2.50;;;1.50;;
6479;SDS011;71753;48.772;9.148;2023-12-28T12:08:05;1.50;;;1.40;;
6479;SDS011;71753;48.772;9.148;2023-12-28T12:10:33;2.53;;;1.27;;
6479;SDS011;71753;48.772;9.148;2023-12-28T12:13:00;1.70;;;1.40;;
6479;SDS011;71753;48.772;9.148;2023-12-28T12:15:29;1.83;;;1.43;;
6479;SDS011;71753;48.772;9.148;2023-12-28T12:17:55;4.00;;;2.10;;
6479;SDS011;71753;48.772;9.148;2023-12-28T12:20:23;1.20;;;1.10;;
6479;SDS011;71753;48.772;9.148;2023-12-28T12:22:51;1.33;;;1.23;;
6479;SDS011;71753;48.772;9.148;2023-12-28T12:25:18;1.70;;;1.40;;
6479;SDS011;71753;48.772;9.148;2023-12-28T12:27:45;1.40;;;1.27;;
6479;SDS011;71753;48.772;9.148;2023-12-28T12:30:12;1.20;;;1.10;;
6479;SDS011;71753;48.772;9.148;2023-12-28T12:32:39;1.40;;;1.20;;
6479;SDS011;71753;48.772;9.148;2023-12-28T12:35:08;2.90;;;1.37;;
6479;SDS011;71753;48.772;9.148;2023-12-28T12:37:37;1.90;;;1.40;;
6479;SDS011;71753;48.772;9.148;2023-12-28T12:40:04;1.60;;;1.30;;
6479;SDS011;71753;48.772;9.148;2023-12-28T12:42:32;2.10;;;1.30;;
6479;SDS011;71753;48.772;9.148;2023-12-28T12:44:58;2.10;;;1.60;;
6479;SDS011;71753;48.772;9.148;2023-12-28T12:47:25;1.90;;;1.20;;
6479;SDS011;71753;48.772;9.148;2023-12-28T12:49:57;1.97;;;1.30;;
6479;SDS011;71753;48.772;9.148;2023-12-28T12:52:25;1.30;;;1.20;;
6479;SDS011;71753;48.772;9.148;2023-12-28T12:54:55;1.87;;;1.63;;
6479;SDS011;71753;48.772;9.148;2023-12-28T12:57:22;2.80;;;1.50;;
6479;SDS011;71753;48.772;9.148;2023-12-28T12:59:50;1.60;;;1.40;;
6479;SDS011;71753;48.772;9.148;2023-12-28T13:02:17;1.20;;;1.10;;
6479;SDS011;71753;48.772;9.148;2023-12-28T13:04:44;1.47;;;1.30;;
6479;SDS011;71753;48.772;9.148;2023-12-28T13:07:10;2.10;;;1.50;;
6479;SDS011;71753;48.772;9.148;2023-12-28T13:09:37;1.77;;;1.40;;
6479;SDS011;71753;48.772;9.148;2023-12-28T13:12:06;1.17;;;1.07;;
6479;SDS011;71753;48.772;9.148;2023-12-28T13:14:33;1.67;;;1.17;;
6479;SDS011;71753;48.772;9.148;2023-12-28T13:16:59;1.40;;;1.30;;
6479;SDS011;71753;48.772;9.148;2023-12-28T13:19:27;2.47;;;1.30;;
6479;SDS011;71753;48.772;9.148;2023-12-28T13:21:53;1.27;;;1.17;;
6479;SDS011;71753;48.772;9.148;2023-12-28T13:24:20;2.83;;;1.10;;
6479;SDS011;71753;48.772;9.148;2023-12-28T13:26:46;1.33;;;1.23;;
6479;SDS011;71753;48.772;9.148;2023-12-28T13:29:14;1.40;;;1.30;;
6479;SDS011;71753;48.772;9.148;2023-12-28T13:31:41;2.00;;;1.40;;
6479;SDS011;71753;48.772;9.148;2023-12-28T13:34:09;1.50;;;1.40;;
6479;SDS011;71753;48.772;9.148;2023-12-28T13:36:36;2.40;;;1.20;;
6479;SDS011;71753;48.772;9.148;2023-12-28T13:39:03;2.00;;;1.17;;
6479;SDS011;71753;48.772;9.148;2023-12-28T13:41:30;1.60;;;1.40;;
6479;SDS011;71753;48.772;9.148;2023-12-28T13:43:57;1.53;;;1.27;;
6479;SDS011;71753;48.772;9.148;2023-12-28T13:46:28;4.10;;;2.50;;
6479;SDS011;71753;48.772;9.148;2023-12-28T13:48:55;1.90;;;1.53;;
6479;SDS011;71753;48.772;9.148;2023-12-28T13:51:22;2.50;;;1.50;;
6479;SDS011;71753;48.772;9.148;2023-12-28T13:53:48;4.47;;;1.60;;
6479;SDS011;71753;48.772;9.148;2023-12-28T13:56:15;1.73;;;1.47;;
6479;SDS011;71753;48.772;9.148;2023-12-28T13:58:42;1.40;;;1.30;;
6479;SDS011;71753;48.772;9.148;2023-12-28T14:01:09;1.40;;;1.20;;
6479;SDS011;71753;48.772;9.148;2023-12-28T14:03:37;1.53;;;1.43;;
6479;SDS011;71753;48.772;9.148;2023-12-28T14:06:04;1.87;;;1.47;;
6479;SDS011;71753;48.772;9.148;2023-12-28T14:08:31;2.53;;;1.43;;
6479;SDS011;71753;48.772;9.148;2023-12-28T14:10:57;1.50;;;1.40;;
6479;SDS011;71753;48.772;9.148;2023-12-28T14:13:24;1.80;;;1.40;;
6479;SDS011;71753;48.772;9.148;2023-12-28T14:15:51;1.30;;;1.20;;
6479;SDS011;71753;48.772;9.148;2023-12-28T14:18:17;1.40;;;1.20;;
6479;SDS011;71753;48.772;9.148;2023-12-28T14:20:45;1.87;;;1.40;;
6479;SDS011;71753;48.772;9.148;2023-12-28T14:23:12;1.67;;;1.40;;
6479;SDS011;71753;48.772;9.148;2023-12-28T14:25:40;2.23;;;1.50;;
6479;SDS011;71753;48.772;9.148;2023-12-28T14:28:07;2.43;;;1.90;;
6479;SDS011;71753;48.772;9.148;2023-12-28T14:30:35;3.43;;;1.90;;
6479;SDS011;71753;48.772;9.148;2023-12-28T14:33:02;1.57;;;1.40;;
6479;SDS011;71753;48.772;9.148;2023-12-28T14:35:30;1.43;;;1.33;;
6479;SDS011;71753;48.772;9.148;2023-12-28T14:37:58;1.50;;;1.40;;
6479;SDS011;71753;48.772;9.148;2023-12-28T14:40:25;2.80;;;1.60;;
6479;SDS011;71753;48.772;9.148;2023-12-28T14:42:51;1.97;;;1.50;;
6479;SDS011;71753;48.772;9.148;2023-12-28T14:45:18;1.60;;;1.50;;
6479;SDS011;71753;48.772;9.148;2023-12-28T14:47:45;3.07;;;1.63;;
6479;SDS011;71753;48.772;9.148;2023-12-28T14:50:11;1.90;;;1.70;;
6479;SDS011;71753;48.772;9.148;2023-12-28T14:52:38;2.37;;;1.70;;
6479;SDS011;71753;48.772;9.148;2023-12-28T14:55:09;2.70;;;1.67;;
6479;SDS011;71753;48.772;9.148;2023-12-28T14:57:35;1.73;;;1.40;;
6479;SDS011;71753;48.772;9.148;2023-12-28T15:00:02;2.17;;;1.47;;